Time;durP1;ratioP1;P1;durP2;ratioP2;P2;SDS_P1;SDS_P2;PMS_P1;PMS_P2;Temp;Humidity;BMP_temperature;BMP_pressure;BME280_temperature;BME280_humidity;BME280_pressure;Samples;Min_cycle;Max_cycle;Signal;HPM_P1;HPM_P2
2022/08/23 00:01:00;;;;;;;2.63;2.43;;;16.90;99.90;;;;;;469858;253;29292;-70
2022/08/23 00:03:01;;;;;;;2.60;2.40;;;16.80;99.90;;;;;;469879;253;28805;-69
2022/08/23 00:05:03;;;;;;;3.77;2.60;;;16.80;99.90;;;;;;471231;251;28932;-69
2022/08/23 00:07:04;;;;;;;2.90;2.40;;;16.70;99.90;;;;;;466873;254;28800;-69
2022/08/23 00:09:05;;;;;;;2.50;2.30;;;16.60;99.90;;;;;;465169;253;28964;-69
2022/08/23 00:11:06;;;;;;;3.03;2.50;;;16.60;99.90;;;;;;470851;251;28854;-68
2022/08/23 00:13:09;;;;;;;2.60;2.40;;;16.60;99.90;;;;;;469867;253;28825;-69
2022/08/23 00:15:09;;;;;;;2.93;2.63;;;16.50;99.90;;;;;;469848;250;28881;-70
2022/08/23 00:17:10;;;;;;;2.40;2.30;;;16.50;99.90;;;;;;469827;250;28836;-69
2022/08/23 00:19:12;;;;;;;2.47;2.27;;;16.50;99.90;;;;;;469856;250;28891;-70
2022/08/23 00:21:13;;;;;;;2.60;2.40;;;16.40;99.90;;;;;;469847;250;29244;-69
2022/08/23 00:23:14;;;;;;;2.40;2.20;;;16.40;99.90;;;;;;469882;250;29316;-69
2022/08/23 00:25:15;;;;;;;2.10;2.00;;;16.50;99.90;;;;;;469888;250;29366;-70
2022/08/23 00:27:16;;;;;;;2.40;2.20;;;16.60;99.90;;;;;;469842;250;28789;-68
2022/08/23 00:29:18;;;;;;;2.33;2.23;;;16.60;99.90;;;;;;469885;250;28819;-71
2022/08/23 00:31:19;;;;;;;2.80;2.60;;;16.60;99.90;;;;;;469888;250;29047;-68
2022/08/23 00:33:20;;;;;;;2.53;2.33;;;16.60;99.90;;;;;;469883;250;28813;-69
2022/08/23 00:35:21;;;;;;;2.70;2.50;;;16.60;99.90;;;;;;472129;250;28838;-70
2022/08/23 00:37:23;;;;;;;2.93;2.70;;;16.50;99.90;;;;;;468561;250;28891;-69
2022/08/23 00:39:24;;;;;;;2.30;2.20;;;16.50;99.90;;;;;;468208;252;28934;-69
2022/08/23 00:41:25;;;;;;;2.67;2.47;;;16.40;99.90;;;;;;463941;254;28639;-69
2022/08/23 00:48:06;;;;;;;2.90;2.70;;;16.30;99.90;;;;;;469829;253;28869;-69
2022/08/23 00:50:07;;;;;;;2.57;2.37;;;16.30;99.90;;;;;;469882;250;28900;-69
2022/08/23 00:52:08;;;;;;;2.73;2.53;;;16.30;99.90;;;;;;469871;250;29309;-70
2022/08/23 00:54:10;;;;;;;2.20;2.10;;;16.20;99.90;;;;;;469885;250;29246;-69
2022/08/23 00:56:11;;;;;;;2.63;2.43;;;16.10;99.90;;;;;;469856;250;29318;-70
2022/08/23 00:58:12;;;;;;;2.50;2.30;;;16.10;99.90;;;;;;469899;250;28881;-68
2022/08/23 01:00:13;;;;;;;2.90;2.70;;;16.10;99.90;;;;;;469924;250;28929;-68
2022/08/23 01:02:14;;;;;;;2.50;2.30;;;16.00;99.90;;;;;;469910;250;28813;-70
2022/08/23 01:04:16;;;;;;;2.60;2.40;;;16.00;99.90;;;;;;469906;250;28861;-69
2022/08/23 01:06:17;;;;;;;2.73;2.53;;;15.90;99.90;;;;;;469808;250;28824;-68
2022/08/23 01:08:18;;;;;;;2.97;2.77;;;15.90;99.90;;;;;;469861;250;28816;-69
2022/08/23 01:10:19;;;;;;;2.90;2.70;;;15.90;99.90;;;;;;469891;250;28905;-69
2022/08/23 01:12:22;;;;;;;2.77;2.57;;;15.80;99.90;;;;;;469885;250;28829;-71
2022/08/23 01:14:22;;;;;;;2.80;2.60;;;15.80;99.90;;;;;;469781;253;28774;-69
2022/08/23 01:16:23;;;;;;;2.70;2.50;;;15.80;99.90;;;;;;469841;250;29301;-69
2022/08/23 01:18:25;;;;;;;2.70;2.50;;;15.80;99.90;;;;;;469871;250;29729;-69
2022/08/23 01:20:26;;;;;;;3.07;2.77;;;15.80;99.90;;;;;;469871;250;29343;-69
2022/08/23 01:22:27;;;;;;;2.80;2.33;;;15.80;99.90;;;;;;469906;250;29395;-68
2022/08/23 01:24:28;;;;;;;2.60;2.50;;;15.80;99.90;;;;;;469850;250;28878;-68
2022/08/23 01:26:33;;;;;;;2.57;2.37;;;15.80;99.90;;;;;;469833;250;28825;-69
2022/08/23 01:28:32;;;;;;;2.77;2.57;;;15.70;99.90;;;;;;469569;253;28825;-70
2022/08/23 01:30:32;;;;;;;3.07;2.70;;;15.70;99.90;;;;;;469866;250;28785;-69
2022/08/23 01:32:33;;;;;;;2.53;2.40;;;15.70;99.90;;;;;;469920;250;28910;-69
2022/08/23 01:34:35;;;;;;;2.60;2.40;;;15.70;99.90;;;;;;469891;250;28804;-69
2022/08/23 01:36:36;;;;;;;2.70;2.50;;;15.70;99.90;;;;;;469822;250;28817;-69
2022/08/23 01:38:37;;;;;;;2.63;2.53;;;15.60;99.90;;;;;;469870;250;28825;-68
2022/08/23 01:40:38;;;;;;;2.90;2.70;;;15.60;99.90;;;;;;469910;250;28790;-69
2022/08/23 01:42:40;;;;;;;2.50;2.30;;;15.60;99.90;;;;;;469914;250;29296;-68
2022/08/23 01:44:41;;;;;;;2.67;2.47;;;15.60;99.90;;;;;;469776;250;29300;-68
2022/08/23 01:46:42;;;;;;;3.10;2.60;;;15.60;99.90;;;;;;469838;250;29310;-68
2022/08/23 01:48:44;;;;;;;2.50;2.30;;;15.50;99.90;;;;;;469890;250;28834;-69
2022/08/23 01:50:45;;;;;;;2.60;2.40;;;15.50;99.90;;;;;;469825;250;28785;-68
2022/08/23 01:52:46;;;;;;;2.83;2.63;;;15.40;99.90;;;;;;469898;250;28809;-70
2022/08/23 01:54:47;;;;;;;2.70;2.50;;;15.40;99.90;;;;;;469854;250;28927;-69
2022/08/23 01:56:48;;;;;;;2.47;2.30;;;15.30;99.90;;;;;;469796;253;28829;-69
2022/08/23 01:58:49;;;;;;;2.67;2.47;;;15.20;99.90;;;;;;469912;250;28911;-68
2022/08/23 02:00:51;;;;;;;3.00;2.80;;;15.10;99.90;;;;;;469865;250;28911;-69
2022/08/23 02:02:52;;;;;;;3.10;2.90;;;15.00;99.90;;;;;;469892;250;28889;-71
2022/08/23 02:04:53;;;;;;;3.90;2.60;;;15.00;99.90;;;;;;469882;250;28825;-68
2022/08/23 02:06:54;;;;;;;3.43;2.73;;;15.00;99.90;;;;;;469822;250;29305;-68
2022/08/23 02:09:02;;;;;;;2.33;2.23;;;14.90;99.90;;;;;;469865;250;29483;-70
2022/08/23 02:11:03;;;;;;;2.80;2.60;;;14.80;99.90;;;;;;469863;250;28787;-69
2022/08/23 02:13:04;;;;;;;3.07;2.87;;;14.90;99.90;;;;;;469907;250;28825;-70
2022/08/23 02:15:05;;;;;;;2.33;2.20;;;14.80;99.90;;;;;;469894;250;28784;-69
2022/08/23 02:17:07;;;;;;;2.83;2.63;;;14.90;99.90;;;;;;469789;250;28914;-69
2022/08/23 02:19:08;;;;;;;3.60;3.30;;;14.70;99.90;;;;;;469905;250;28813;-69
2022/08/23 02:21:09;;;;;;;3.10;2.90;;;14.70;99.90;;;;;;469881;253;28561;-69
2022/08/23 02:23:10;;;;;;;3.53;3.03;;;14.80;99.90;;;;;;469892;250;28852;-70
2022/08/23 02:25:12;;;;;;;3.33;3.10;;;14.90;99.90;;;;;;469893;250;28935;-69
2022/08/23 02:27:16;;;;;;;2.90;2.70;;;15.00;99.90;;;;;;469777;250;28848;-69
2022/08/23 02:29:17;;;;;;;3.10;2.90;;;15.00;99.90;;;;;;469867;250;28880;-68
2022/08/23 02:31:18;;;;;;;2.90;2.70;;;15.10;99.90;;;;;;469865;250;29735;-71
2022/08/23 02:33:20;;;;;;;2.40;2.23;;;15.10;99.90;;;;;;469908;250;29477;-69
2022/08/23 02:35:21;;;;;;;2.90;2.70;;;15.10;99.90;;;;;;469877;250;29292;-68
2022/08/23 02:37:22;;;;;;;3.13;2.93;;;15.10;99.90;;;;;;469818;250;29015;-69
2022/08/23 02:39:23;;;;;;;2.83;2.63;;;15.10;99.90;;;;;;469878;250;28857;-69
2022/08/23 02:41:25;;;;;;;3.10;2.80;;;15.10;99.90;;;;;;469888;250;29422;-71
2022/08/23 02:43:26;;;;;;;2.73;2.53;;;15.10;99.90;;;;;;469842;250;29431;-69
2022/08/23 02:45:27;;;;;;;3.00;2.80;;;15.10;99.90;;;;;;469868;253;29384;-68
2022/08/23 02:47:28;;;;;;;2.70;2.50;;;15.00;99.90;;;;;;469832;250;28805;-68
2022/08/23 02:49:30;;;;;;;2.97;2.77;;;15.00;99.90;;;;;;469878;250;28774;-68
2022/08/23 02:51:31;;;;;;;2.90;2.70;;;15.00;99.90;;;;;;469905;250;28987;-69
2022/08/23 02:53:32;;;;;;;2.80;2.60;;;15.00;99.90;;;;;;469848;250;28990;-68
2022/08/23 02:55:34;;;;;;;2.63;2.43;;;15.00;99.90;;;;;;469875;250;28821;-68
2022/08/23 02:57:35;;;;;;;2.93;2.73;;;15.00;99.90;;;;;;469822;250;28838;-69
2022/08/23 02:59:36;;;;;;;2.90;2.70;;;15.00;99.90;;;;;;469914;250;28797;-70
2022/08/23 03:01:37;;;;;;;3.30;3.10;;;15.00;99.90;;;;;;469890;252;28861;-70
2022/08/23 03:03:39;;;;;;;3.07;2.77;;;15.00;99.90;;;;;;469882;250;28774;-69
2022/08/23 03:05:40;;;;;;;2.80;2.60;;;15.00;99.90;;;;;;469920;250;28832;-69
2022/08/23 03:07:41;;;;;;;3.30;3.07;;;15.00;99.90;;;;;;469832;250;28931;-68
2022/08/23 03:09:42;;;;;;;2.87;2.67;;;14.90;99.90;;;;;;469858;253;28798;-69
2022/08/23 03:11:44;;;;;;;3.20;2.90;;;14.90;99.90;;;;;;469887;250;28812;-70
2022/08/23 03:13:45;;;;;;;2.73;2.53;;;14.80;99.90;;;;;;469867;250;28781;-69
2022/08/23 03:15:46;;;;;;;3.10;2.90;;;14.80;99.90;;;;;;469885;250;28815;-69
2022/08/23 03:17:47;;;;;;;2.87;2.67;;;14.70;99.90;;;;;;469848;250;29923;-72
2022/08/23 03:19:49;;;;;;;2.60;2.40;;;14.70;99.90;;;;;;469892;250;29344;-68
2022/08/23 03:21:50;;;;;;;2.90;2.63;;;14.80;99.90;;;;;;469893;250;29403;-70
2022/08/23 03:23:51;;;;;;;2.73;2.53;;;14.80;99.90;;;;;;469874;250;28806;-69
2022/08/23 03:25:52;;;;;;;3.17;2.90;;;14.70;99.90;;;;;;469877;250;28801;-69
2022/08/23 03:27:54;;;;;;;3.43;2.90;;;14.60;99.90;;;;;;469856;250;28896;-68
2022/08/23 03:29:55;;;;;;;4.07;2.90;;;14.60;99.90;;;;;;469874;250;28790;-69
2022/08/23 03:31:56;;;;;;;3.17;2.70;;;14.60;99.90;;;;;;469891;250;28817;-71
2022/08/23 03:33:57;;;;;;;4.37;3.30;;;14.60;99.90;;;;;;469854;250;28602;-68
2022/08/23 03:35:59;;;;;;;3.33;3.03;;;14.40;99.90;;;;;;469887;250;28921;-68
2022/08/23 03:38:00;;;;;;;2.90;2.70;;;14.40;99.90;;;;;;469828;250;28900;-71
2022/08/23 03:40:01;;;;;;;2.80;2.60;;;14.50;99.90;;;;;;469857;250;28829;-69
2022/08/23 03:42:02;;;;;;;3.60;3.30;;;14.50;99.90;;;;;;469891;250;29385;-70
2022/08/23 03:44:04;;;;;;;3.10;2.90;;;14.50;99.90;;;;;;469800;250;29420;-68
2022/08/23 03:46:05;;;;;;;3.20;3.00;;;14.40;99.90;;;;;;469857;250;29375;-69
2022/08/23 03:48:06;;;;;;;3.30;3.10;;;14.30;99.90;;;;;;469875;250;29421;-71
2022/08/23 03:50:07;;;;;;;2.83;2.63;;;14.30;99.90;;;;;;469878;250;28586;-69
2022/08/23 03:52:10;;;;;;;3.20;2.97;;;14.20;99.90;;;;;;469897;250;28809;-69
2022/08/23 03:54:10;;;;;;;3.10;2.90;;;14.30;99.90;;;;;;469849;250;28885;-68
2022/08/23 03:56:11;;;;;;;3.00;2.80;;;14.20;99.90;;;;;;469783;250;28840;-70
2022/08/23 03:58:12;;;;;;;3.00;2.80;;;14.20;99.90;;;;;;469905;250;28909;-71
2022/08/23 04:00:14;;;;;;;2.90;2.70;;;14.10;99.90;;;;;;469862;250;28801;-68
2022/08/23 04:02:15;;;;;;;3.40;3.10;;;14.00;99.90;;;;;;469827;250;28508;-69
2022/08/23 04:04:16;;;;;;;3.30;3.10;;;14.00;99.90;;;;;;469831;250;28483;-68
2022/08/23 04:06:17;;;;;;;3.53;3.23;;;13.90;99.90;;;;;;469788;250;28495;-68
2022/08/23 04:08:19;;;;;;;3.67;3.37;;;13.90;99.90;;;;;;469862;250;29099;-68
2022/08/23 04:10:20;;;;;;;3.07;2.87;;;14.00;99.90;;;;;;469871;253;29110;-69
2022/08/23 04:12:22;;;;;;;3.27;3.07;;;14.00;99.90;;;;;;469870;250;29360;-70
2022/08/23 04:14:23;;;;;;;3.80;3.50;;;14.00;99.90;;;;;;469864;250;28509;-69
2022/08/23 04:16:24;;;;;;;3.43;3.23;;;14.10;99.90;;;;;;469812;253;29200;-69
2022/08/23 04:18:25;;;;;;;3.53;3.30;;;14.10;99.90;;;;;;469899;250;28498;-71
2022/08/23 04:20:26;;;;;;;4.50;3.63;;;14.00;99.90;;;;;;469905;250;28466;-69
2022/08/23 04:22:27;;;;;;;3.97;3.50;;;14.00;99.90;;;;;;469906;250;28437;-69
2022/08/23 04:24:29;;;;;;;4.40;4.10;;;14.00;99.90;;;;;;469882;250;28378;-68
2022/08/23 04:26:30;;;;;;;3.20;3.00;;;14.00;99.90;;;;;;469845;250;28914;-68
2022/08/23 04:28:31;;;;;;;3.57;3.33;;;14.00;99.90;;;;;;469886;250;28920;-72
2022/08/23 04:30:32;;;;;;;3.63;3.27;;;14.00;99.90;;;;;;469893;250;28576;-68
2022/08/23 04:32:34;;;;;;;3.43;3.20;;;14.00;99.90;;;;;;469845;250;29304;-69
2022/08/23 04:34:35;;;;;;;3.50;3.20;;;14.00;99.90;;;;;;469871;250;29671;-68
2022/08/23 04:36:36;;;;;;;3.53;3.30;;;14.00;99.90;;;;;;469829;250;28995;-72
2022/08/23 04:38:37;;;;;;;3.30;3.10;;;14.00;99.90;;;;;;467813;251;28719;-73
2022/08/23 04:42:58;;;;;;;3.50;3.20;;;14.00;99.90;;;;;;465393;253;28503;-69
2022/08/23 04:45:00;;;;;;;3.10;2.90;;;13.90;99.90;;;;;;464205;256;29051;-69
2022/08/23 04:47:00;;;;;;;4.07;3.27;;;13.90;99.90;;;;;;468344;254;28918;-69
2022/08/23 04:49:02;;;;;;;3.47;3.27;;;13.90;99.90;;;;;;469959;250;28928;-70
2022/08/23 04:51:03;;;;;;;4.13;3.73;;;13.90;99.90;;;;;;471672;251;28956;-69
2022/08/23 04:53:04;;;;;;;4.17;3.87;;;13.90;99.90;;;;;;471688;252;29392;-69
2022/08/23 04:55:05;;;;;;;3.20;3.00;;;13.80;99.90;;;;;;471696;252;30112;-68
2022/08/23 04:57:07;;;;;;;3.73;3.40;;;13.80;99.90;;;;;;471602;252;28456;-69
2022/08/23 04:59:08;;;;;;;3.80;3.50;;;13.80;99.90;;;;;;471705;252;28396;-70
2022/08/23 05:01:14;;;;;;;4.10;3.57;;;13.80;99.90;;;;;;471702;252;28347;-69
2022/08/23 05:03:13;;;;;;;3.67;3.33;;;13.80;99.90;;;;;;471458;252;29329;-69
2022/08/23 05:05:15;;;;;;;3.67;3.37;;;13.80;99.90;;;;;;471691;252;28892;-69
2022/08/23 05:07:16;;;;;;;3.50;3.30;;;13.80;99.90;;;;;;471649;252;28271;-68
2022/08/23 05:09:17;;;;;;;3.80;3.17;;;13.80;99.90;;;;;;471682;252;28442;-69
2022/08/23 05:11:19;;;;;;;3.40;3.10;;;13.80;99.90;;;;;;471675;252;28518;-69
2022/08/23 05:13:20;;;;;;;3.80;3.50;;;13.80;99.90;;;;;;471667;252;28345;-68
2022/08/23 05:15:21;;;;;;;3.30;3.10;;;13.80;99.90;;;;;;471663;252;28868;-70
2022/08/23 05:17:22;;;;;;;3.83;3.53;;;13.90;99.90;;;;;;471646;252;28505;-72
2022/08/23 05:19:23;;;;;;;3.13;2.93;;;13.90;99.90;;;;;;471675;252;28386;-69
2022/08/23 05:21:25;;;;;;;3.70;3.40;;;13.90;99.90;;;;;;471683;252;28519;-70
2022/08/23 05:23:26;;;;;;;4.90;3.17;;;14.00;99.90;;;;;;471660;252;28472;-68
2022/08/23 05:25:48;;;;;;;3.50;3.30;;;14.00;99.90;;;;;;471612;251;29073;-69
2022/08/23 05:27:29;;;;;;;3.20;3.00;;;13.90;99.90;;;;;;471504;250;29040;-68
2022/08/23 05:29:30;;;;;;;3.83;3.50;;;14.00;99.90;;;;;;473891;249;29319;-69
2022/08/23 05:31:31;;;;;;;3.70;3.50;;;14.00;99.90;;;;;;468940;250;28687;-70
2022/08/23 05:33:32;;;;;;;3.50;3.20;;;14.00;99.90;;;;;;467086;254;28524;-69
2022/08/23 05:35:33;;;;;;;3.67;3.37;;;14.10;99.90;;;;;;466589;252;29034;-69
2022/08/23 05:37:35;;;;;;;3.70;3.40;;;14.10;99.90;;;;;;468523;253;29027;-69
2022/08/23 05:39:36;;;;;;;3.40;3.20;;;14.00;99.90;;;;;;469801;252;28814;-68
2022/08/23 05:41:39;;;;;;;3.27;2.97;;;14.00;99.90;;;;;;469879;253;28670;-68
2022/08/23 05:43:38;;;;;;;4.70;3.73;;;14.00;99.90;;;;;;469729;253;28889;-68
2022/08/23 05:45:40;;;;;;;3.53;3.23;;;14.10;99.90;;;;;;469857;253;28582;-68
2022/08/23 05:47:41;;;;;;;4.07;3.67;;;14.10;99.90;;;;;;469867;251;28615;-71
2022/08/23 05:49:42;;;;;;;3.80;3.50;;;14.20;99.90;;;;;;469851;253;29346;-69
2022/08/23 05:51:43;;;;;;;3.50;3.23;;;14.30;99.90;;;;;;469884;253;29506;-69
2022/08/23 05:53:45;;;;;;;3.80;3.50;;;14.30;99.90;;;;;;469882;253;29318;-69
2022/08/23 05:55:47;;;;;;;3.80;3.47;;;14.40;99.90;;;;;;471228;246;29274;-69
2022/08/23 05:57:47;;;;;;;3.90;3.60;;;14.50;99.90;;;;;;472606;246;28845;-71
2022/08/23 05:59:48;;;;;;;3.90;3.60;;;14.50;99.90;;;;;;473105;251;28406;-69
2022/08/23 06:01:50;;;;;;;3.57;3.27;;;14.60;99.90;;;;;;465531;253;29030;-70
2022/08/23 06:03:51;;;;;;;3.77;3.47;;;14.70;99.90;;;;;;466671;251;28755;-69
2022/08/23 06:05:52;;;;;;;3.60;3.30;;;14.80;99.90;;;;;;468246;249;28797;-69
2022/08/23 06:07:53;;;;;;;3.87;3.57;;;14.80;99.90;;;;;;471497;252;28887;-71
2022/08/23 06:09:55;;;;;;;3.43;3.23;;;14.90;99.90;;;;;;472513;252;28869;-69
2022/08/23 06:11:58;;;;;;;3.53;3.23;;;15.00;99.90;;;;;;461822;252;29061;-71
2022/08/23 06:13:58;;;;;;;3.17;2.97;;;15.10;99.90;;;;;;471515;250;28953;-70
2022/08/23 06:15:59;;;;;;;3.17;2.97;;;15.20;99.90;;;;;;469824;253;29380;-73
2022/08/23 06:18:01;;;;;;;3.53;3.33;;;15.30;99.90;;;;;;469753;253;29768;-69
2022/08/23 06:20:02;;;;;;;3.70;3.40;;;15.30;99.90;;;;;;469716;250;29467;-69
2022/08/23 06:22:04;;;;;;;3.67;3.37;;;15.40;99.90;;;;;;469671;250;29316;-69
2022/08/23 06:24:05;;;;;;;3.00;2.80;;;15.40;99.90;;;;;;469764;250;28902;-69
2022/08/23 06:26:06;;;;;;;3.20;3.00;;;15.40;99.90;;;;;;469796;253;28813;-75
2022/08/23 06:28:07;;;;;;;3.20;2.93;;;15.50;99.90;;;;;;469830;250;28873;-69
2022/08/23 06:30:08;;;;;;;3.83;3.03;;;15.60;99.90;;;;;;469867;250;28943;-70
2022/08/23 06:32:09;;;;;;;3.70;3.40;;;15.70;99.90;;;;;;469888;250;28959;-70
2022/08/23 06:34:11;;;;;;;3.50;3.30;;;15.80;99.90;;;;;;469858;250;29318;-70
2022/08/23 06:36:16;;;;;;;3.80;3.40;;;16.00;99.90;;;;;;469826;250;28921;-70
2022/08/23 06:38:16;;;;;;;3.70;3.40;;;16.10;99.90;;;;;;469821;250;29268;-73
2022/08/23 06:40:17;;;;;;;3.27;3.07;;;16.20;99.90;;;;;;469912;250;29243;-69
2022/08/23 06:42:18;;;;;;;3.00;2.80;;;16.40;99.90;;;;;;470706;249;29289;-69
2022/08/23 06:44:20;;;;;;;4.20;3.20;;;16.50;99.90;;;;;;470684;248;29193;-69
2022/08/23 06:46:21;;;;;;;4.00;3.10;;;16.70;99.90;;;;;;469252;252;28822;-70
2022/08/23 06:48:24;;;;;;;5.30;3.93;;;16.80;99.90;;;;;;469318;252;28822;-69
2022/08/23 06:50:25;;;;;;;3.70;2.90;;;16.90;99.90;;;;;;469276;252;28850;-69
2022/08/23 06:52:30;;;;;;;2.83;2.60;;;17.00;99.90;;;;;;469320;252;28852;-69
2022/08/23 06:54:32;;;;;;;4.20;2.77;;;17.00;99.90;;;;;;469293;252;28789;-71
2022/08/23 06:56:34;;;;;;;3.10;2.90;;;17.10;99.90;;;;;;469288;252;28799;-70
2022/08/23 06:58:35;;;;;;;3.40;2.70;;;17.10;99.90;;;;;;469331;252;28813;-71
2022/08/23 07:00:36;;;;;;;2.90;2.60;;;17.30;99.90;;;;;;469269;252;29313;-70
2022/08/23 07:02:37;;;;;;;3.00;2.80;;;17.40;99.90;;;;;;469357;252;29276;-69
2022/08/23 07:04:38;;;;;;;3.07;2.80;;;17.50;99.90;;;;;;469378;252;29372;-74
2022/08/23 07:06:40;;;;;;;3.60;2.60;;;17.50;99.90;;;;;;469234;252;28781;-69
2022/08/23 07:08:41;;;;;;;3.57;2.83;;;17.60;99.90;;;;;;469389;252;28827;-70
2022/08/23 07:10:42;;;;;;;3.20;2.70;;;17.80;99.90;;;;;;470285;248;28824;-70
2022/08/23 07:12:43;;;;;;;3.43;2.90;;;17.80;99.90;;;;;;468910;248;29352;-71
2022/08/23 07:14:46;;;;;;;3.40;2.83;;;17.90;99.90;;;;;;462128;256;29449;-73
2022/08/23 07:16:47;;;;;;;3.00;2.63;;;18.00;99.90;;;;;;462089;256;28923;-71
2022/08/23 07:18:48;;;;;;;2.87;2.67;;;17.90;99.90;;;;;;462063;256;28819;-70
2022/08/23 07:20:49;;;;;;;2.70;2.50;;;18.00;99.90;;;;;;462098;256;29394;-70
2022/08/23 07:22:56;;;;;;;2.53;2.33;;;18.00;99.90;;;;;;462107;256;29323;-69
2022/08/23 07:24:57;;;;;;;3.40;2.50;;;18.10;99.90;;;;;;462103;256;28878;-70
2022/08/23 07:27:00;;;;;;;2.73;2.53;;;18.20;99.90;;;;;;462070;256;28903;-70
2022/08/23 07:29:00;;;;;;;2.77;2.50;;;18.30;99.90;;;;;;462062;257;29306;-70
2022/08/23 07:31:01;;;;;;;2.83;2.63;;;18.30;99.90;;;;;;462095;256;29255;-69
2022/08/23 07:33:02;;;;;;;2.70;2.50;;;18.40;99.90;;;;;;462051;256;29369;-70
2022/08/23 07:35:03;;;;;;;4.00;2.40;;;18.50;99.90;;;;;;462105;256;28934;-74
2022/08/23 07:37:05;;;;;;;2.73;2.53;;;18.60;99.90;;;;;;462021;256;28831;-70
2022/08/23 07:39:06;;;;;;;2.80;2.60;;;18.80;99.90;;;;;;462096;256;28849;-71
2022/08/23 07:41:07;;;;;;;2.53;2.33;;;19.10;99.90;;;;;;462072;256;28843;-71
2022/08/23 07:43:08;;;;;;;3.60;2.53;;;19.00;99.90;;;;;;461965;256;28933;-71
2022/08/23 07:45:10;;;;;;;2.67;2.47;;;19.00;99.90;;;;;;461815;256;28966;-70
2022/08/23 07:47:11;;;;;;;3.17;2.67;;;19.00;99.90;;;;;;462037;256;28827;-70
2022/08/23 07:49:12;;;;;;;2.63;2.43;;;19.10;99.90;;;;;;462042;256;28986;-70
2022/08/23 07:51:13;;;;;;;4.20;3.00;;;19.20;99.90;;;;;;462103;256;28811;-69
2022/08/23 07:53:15;;;;;;;3.20;2.60;;;19.30;99.90;;;;;;462049;256;29417;-70
2022/08/23 07:55:16;;;;;;;2.93;2.73;;;19.40;99.90;;;;;;461976;257;29433;-72
2022/08/23 07:57:18;;;;;;;2.93;2.60;;;19.40;99.90;;;;;;463569;246;29281;-70
2022/08/23 07:59:18;;;;;;;2.93;2.40;;;19.50;99.90;;;;;;467204;250;29434;-71
2022/08/23 08:01:20;;;;;;;2.60;2.40;;;19.60;99.90;;;;;;467695;250;29279;-70
2022/08/23 08:03:21;;;;;;;2.73;2.37;;;19.60;99.90;;;;;;471507;252;28935;-70
2022/08/23 08:05:22;;;;;;;2.80;2.60;;;19.60;99.90;;;;;;471661;249;29323;-72
2022/08/23 08:07:24;;;;;;;2.70;2.50;;;19.80;99.90;;;;;;465829;248;29289;-70
2022/08/23 08:09:25;;;;;;;3.70;2.40;;;19.90;99.90;;;;;;461840;255;29435;-70
2022/08/23 08:11:26;;;;;;;2.90;2.70;;;19.90;99.90;;;;;;461968;255;28843;-70
2022/08/23 08:13:28;;;;;;;2.47;2.27;;;19.90;99.90;;;;;;469460;252;28875;-70
2022/08/23 08:15:29;;;;;;;2.70;2.40;;;20.10;99.90;;;;;;471209;252;28976;-69
2022/08/23 08:17:31;;;;;;;2.43;2.23;;;20.10;99.90;;;;;;472453;247;28898;-70
2022/08/23 08:19:32;;;;;;;4.13;2.30;;;20.10;99.90;;;;;;467153;250;29433;-67
2022/08/23 08:21:33;;;;;;;2.70;2.33;;;20.40;99.90;;;;;;468572;249;29339;-70
2022/08/23 08:23:35;;;;;;;3.50;2.60;;;20.60;99.90;;;;;;467443;253;29441;-71
2022/08/23 08:25:36;;;;;;;3.90;2.60;;;20.60;99.90;;;;;;471217;249;28881;-72
2022/08/23 08:27:37;;;;;;;2.53;2.33;;;20.50;99.90;;;;;;460431;252;28947;-72
2022/08/23 08:29:38;;;;;;;2.90;2.43;;;20.60;99.90;;;;;;469012;253;29013;-70
2022/08/23 08:31:40;;;;;;;2.67;2.47;;;20.60;99.90;;;;;;471150;251;28893;-70
2022/08/23 08:33:41;;;;;;;2.10;2.00;;;20.70;99.90;;;;;;471212;252;28900;-73
2022/08/23 08:35:42;;;;;;;3.23;2.70;;;20.70;99.90;;;;;;470878;252;29425;-73
2022/08/23 08:37:43;;;;;;;2.77;2.57;;;20.70;99.90;;;;;;470919;252;29396;-71
2022/08/23 08:39:44;;;;;;;2.80;2.60;;;20.80;99.90;;;;;;471213;251;28881;-70
2022/08/23 08:41:49;;;;;;;2.87;2.50;;;20.80;99.90;;;;;;470981;252;28924;-72
2022/08/23 08:43:47;;;;;;;2.77;2.53;;;20.90;99.90;;;;;;470718;252;28973;-74
2022/08/23 08:45:48;;;;;;;2.57;2.37;;;21.10;99.90;;;;;;470957;252;28999;-71
2022/08/23 08:47:49;;;;;;;2.97;2.60;;;21.20;99.90;;;;;;475290;246;28853;-70
2022/08/23 08:49:51;;;;;;;2.73;2.53;;;21.20;99.90;;;;;;473260;245;28867;-69
2022/08/23 08:51:52;;;;;;;2.50;2.30;;;21.40;99.90;;;;;;471681;251;28823;-70
2022/08/23 08:53:54;;;;;;;4.07;2.57;;;21.40;99.90;;;;;;472044;251;28949;-73
2022/08/23 08:55:54;;;;;;;2.33;2.13;;;21.30;99.90;;;;;;472815;251;28823;-71
2022/08/23 08:57:56;;;;;;;2.90;2.50;;;21.40;99.90;;;;;;469486;247;29395;-71
2022/08/23 08:59:57;;;;;;;2.20;2.10;;;21.30;99.90;;;;;;470820;251;30081;-70
2022/08/23 09:01:58;;;;;;;2.53;2.33;;;21.30;99.90;;;;;;472900;251;29314;-70
2022/08/23 09:03:59;;;;;;;3.00;2.80;;;21.40;99.90;;;;;;468446;249;28842;-72
2022/08/23 09:06:01;;;;;;;3.07;2.77;;;21.40;99.90;;;;;;467780;252;28915;-78
2022/08/23 09:08:02;;;;;;;3.07;2.80;;;21.60;99.90;;;;;;460168;254;29054;-70
2022/08/23 09:10:03;;;;;;;2.37;2.27;;;21.80;99.90;;;;;;470734;252;28811;-70
2022/08/23 09:12:04;;;;;;;2.53;2.33;;;21.80;99.90;;;;;;473346;246;28791;-70
2022/08/23 09:14:06;;;;;;;2.20;2.10;;;22.10;99.90;;;;;;467148;254;28838;-71
2022/08/23 09:16:07;;;;;;;3.13;2.80;;;22.10;99.90;;;;;;467074;253;28948;-72
2022/08/23 09:18:08;;;;;;;2.70;2.50;;;22.10;99.90;;;;;;467084;250;28831;-70
2022/08/23 09:20:10;;;;;;;2.40;2.10;;;22.00;99.90;;;;;;468203;253;28957;-74
2022/08/23 09:22:12;;;;;;;2.80;2.10;;;22.10;99.90;;;;;;461577;252;29329;-71
2022/08/23 09:24:12;;;;;;;2.50;1.80;;;22.10;99.90;;;;;;470638;252;29378;-70
2022/08/23 09:26:13;;;;;;;2.47;2.27;;;22.10;99.90;;;;;;472451;246;29372;-69
2022/08/23 09:28:15;;;;;;;2.23;2.03;;;22.40;99.90;;;;;;467121;250;28934;-70
2022/08/23 09:30:16;;;;;;;2.43;2.23;;;22.50;99.90;;;;;;467992;250;28931;-74
2022/08/23 09:32:17;;;;;;;2.27;2.07;;;22.50;99.90;;;;;;469723;249;28840;-69
2022/08/23 09:34:18;;;;;;;2.93;2.40;;;22.50;99.90;;;;;;470319;252;28868;-71
2022/08/23 09:36:20;;;;;;;2.77;2.10;;;22.50;99.90;;;;;;467518;254;29488;-69
2022/08/23 09:38:21;;;;;;;3.20;2.57;;;22.50;99.90;;;;;;467160;254;29334;-69
2022/08/23 09:40:24;;;;;;;2.27;2.10;;;22.60;99.90;;;;;;462706;253;29388;-74
2022/08/23 09:42:24;;;;;;;2.13;1.93;;;22.50;99.90;;;;;;472557;249;28932;-70
2022/08/23 09:44:25;;;;;;;2.27;2.07;;;22.60;99.90;;;;;;471202;252;28910;-71
2022/08/23 09:46:26;;;;;;;2.30;2.10;;;22.80;99.90;;;;;;472732;246;28906;-69
2022/08/23 09:48:27;;;;;;;2.37;2.17;;;22.80;99.90;;;;;;467183;254;28857;-70
2022/08/23 09:50:29;;;;;;;2.87;2.10;;;23.00;99.90;;;;;;459958;255;28885;-73
2022/08/23 09:52:31;;;;;;;1.97;1.87;;;23.00;99.90;;;;;;471095;252;28897;-70
2022/08/23 09:54:31;;;;;;;2.70;2.50;;;23.00;99.90;;;;;;464769;251;28875;-70
2022/08/23 09:56:32;;;;;;;2.43;2.23;;;23.10;99.90;;;;;;471118;252;28988;-69
2022/08/23 09:58:33;;;;;;;2.50;2.10;;;23.20;99.90;;;;;;470319;249;28939;-70
2022/08/23 10:00:35;;;;;;;2.10;1.83;;;23.00;99.90;;;;;;469781;250;29402;-73
2022/08/23 10:02:36;;;;;;;4.60;2.10;;;23.20;99.90;;;;;;469612;250;29673;-70
2022/08/23 10:04:37;;;;;;;3.77;2.47;;;23.50;99.90;;;;;;470066;250;29494;-70
2022/08/23 10:06:39;;;;;;;3.03;2.33;;;23.50;99.90;;;;;;469977;250;29181;-71
2022/08/23 10:08:40;;;;;;;4.00;2.40;;;23.80;99.90;;;;;;470161;250;28993;-69
2022/08/23 10:10:42;;;;;;;3.20;2.57;;;23.80;99.90;;;;;;470184;250;29015;-73
2022/08/23 10:12:42;;;;;;;2.43;2.23;;;23.80;99.90;;;;;;469791;253;28945;-70
2022/08/23 10:14:43;;;;;;;3.33;2.90;;;23.90;99.90;;;;;;469929;250;28910;-73
2022/08/23 10:16:45;;;;;;;4.00;2.80;;;23.80;99.90;;;;;;469905;250;29028;-70
2022/08/23 10:18:46;;;;;;;2.73;2.30;;;23.90;99.90;;;;;;469896;250;29009;-70
2022/08/23 10:20:47;;;;;;;4.20;2.47;;;23.80;99.90;;;;;;469918;250;28918;-73
2022/08/23 10:22:48;;;;;;;2.33;2.13;;;23.90;99.90;;;;;;469933;250;28866;-69
2022/08/23 10:24:50;;;;;;;2.30;2.17;;;23.90;99.90;;;;;;469957;250;29382;-70
2022/08/23 10:26:51;;;;;;;2.83;2.63;;;23.90;99.90;;;;;;469940;250;29428;-70
2022/08/23 10:31:12;;;;;;;2.80;2.50;;;24.10;99.90;;;;;;470261;253;28940;-70
2022/08/23 10:33:13;;;;;;;2.60;2.40;;;24.50;99.90;;;;;;470248;250;29473;-69
2022/08/23 10:35:14;;;;;;;2.60;2.40;;;24.40;99.90;;;;;;470252;253;30149;-70
2022/08/23 10:37:15;;;;;;;3.00;2.57;;;24.50;99.90;;;;;;470251;250;29386;-73
2022/08/23 10:39:17;;;;;;;2.27;2.07;;;24.60;99.90;;;;;;470283;250;29421;-70
2022/08/23 10:41:18;;;;;;;2.77;2.30;;;24.40;99.90;;;;;;470271;250;29019;-71